createdAt,value
2022-11-08T00:00:40.617Z,100882.50
2022-11-08T00:03:07.694Z,100882.13
2022-11-08T00:05:53.125Z,100882.74
2022-11-08T00:08:38.331Z,100888.36
2022-11-08T00:11:23.292Z,100886.77
2022-11-08T00:13:59.146Z,100885.16
2022-11-08T00:16:27.134Z,100885.59
2022-11-08T00:18:53.647Z,100888.14
2022-11-08T00:21:20.193Z,100889.89
2022-11-08T00:23:46.933Z,100887.64
2022-11-08T00:26:13.485Z,100886.16
2022-11-08T00:28:40.407Z,100887.70
2022-11-08T00:31:06.830Z,100889.11
2022-11-08T00:33:33.684Z,100886.14
2022-11-08T00:36:01.757Z,100886.27
2022-11-08T00:38:28.295Z,100883.48
2022-11-08T00:40:54.704Z,100882.11
2022-11-08T00:43:21.425Z,100881.13
2022-11-08T00:45:47.849Z,100879.81
2022-11-08T00:48:14.554Z,100884.92
2022-11-08T00:50:41.284Z,100885.86
2022-11-08T00:53:07.699Z,100883.55
2022-11-08T00:55:34.183Z,100888.46
2022-11-08T00:58:00.839Z,100886.02
2022-11-08T01:00:28.160Z,100886.69
2022-11-08T01:03:13.405Z,100882.73
2022-11-08T01:05:40.670Z,100882.70
2022-11-08T01:08:07.513Z,100877.00
2022-11-08T01:10:35.014Z,100872.85
2022-11-08T01:13:01.509Z,100870.98
2022-11-08T01:15:28.060Z,100869.38
2022-11-08T01:17:54.682Z,100871.55
2022-11-08T01:20:21.165Z,100871.52
2022-11-08T01:22:47.641Z,100870.27
2022-11-08T01:25:14.189Z,100874.67
2022-11-08T01:27:42.058Z,100870.28
2022-11-08T01:30:09.411Z,100870.51
2022-11-08T01:32:35.829Z,100868.07
2022-11-08T01:35:02.586Z,100863.14
2022-11-08T01:37:29.124Z,100864.89
2022-11-08T01:39:55.557Z,100864.55
2022-11-08T01:42:29.056Z,100866.38
2022-11-08T01:45:01.235Z,100865.94
2022-11-08T01:47:27.764Z,100865.52
2022-11-08T01:50:05.497Z,100863.45
2022-11-08T01:52:49.607Z,100864.52
2022-11-08T01:55:25.295Z,100864.86
2022-11-08T01:58:10.226Z,100857.75
2022-11-08T02:00:39.017Z,100857.35
2022-11-08T02:03:09.363Z,100852.53
2022-11-08T02:05:36.183Z,100853.20
2022-11-08T02:08:09.477Z,100856.21
2022-11-08T02:10:39.293Z,100855.08
2022-11-08T02:13:18.239Z,100857.92
2022-11-08T02:15:45.616Z,100862.20
2022-11-08T02:18:14.387Z,100864.53
2022-11-08T02:21:00.210Z,100864.64
2022-11-08T02:23:32.012Z,100866.59
2022-11-08T02:25:58.475Z,100864.30
2022-11-08T02:28:24.854Z,100862.78
2022-11-08T02:30:51.151Z,100870.20
2022-11-08T02:33:22.976Z,100864.84
2022-11-08T02:35:53.911Z,100862.16
2022-11-08T02:38:21.643Z,100862.11
2022-11-08T02:40:51.181Z,100862.73
2022-11-08T02:43:18.457Z,100859.39
2022-11-08T02:45:44.969Z,100858.73
2022-11-08T02:48:12.323Z,100860.63
2022-11-08T02:50:39.781Z,100867.14
2022-11-08T02:53:07.137Z,100868.78
2022-11-08T02:55:34.389Z,100868.82
2022-11-08T02:58:02.563Z,100869.04
2022-11-08T03:00:29.919Z,100870.99
2022-11-08T03:02:57.867Z,100875.59
2022-11-08T03:05:26.890Z,100879.74
2022-11-08T03:07:54.652Z,100879.92
2022-11-08T03:10:23.027Z,100880.97
2022-11-08T03:13:02.162Z,100875.99
2022-11-08T03:15:29.615Z,100872.40
2022-11-08T03:17:57.564Z,100871.28
2022-11-08T03:20:28.278Z,100871.92
2022-11-08T03:23:00.731Z,100872.23
2022-11-08T03:25:27.772Z,100871.74
2022-11-08T03:27:54.404Z,100867.51
2022-11-08T03:30:21.325Z,100869.68
2022-11-08T03:32:49.470Z,100870.34
2022-11-08T03:35:16.487Z,100867.39
2022-11-08T03:37:52.813Z,100868.66
2022-11-08T03:40:19.965Z,100866.55
2022-11-08T03:42:47.052Z,100865.10
2022-11-08T03:45:14.776Z,100866.92
2022-11-08T03:47:46.026Z,100868.55
2022-11-08T03:50:14.812Z,100867.86
2022-11-08T03:52:45.601Z,100870.36
2022-11-08T03:55:12.598Z,100873.71
2022-11-08T03:57:40.257Z,100875.39
2022-11-08T04:00:09.286Z,100874.80
2022-11-08T04:02:40.075Z,100873.74
2022-11-08T04:05:08.721Z,100871.55
2022-11-08T04:07:35.827Z,100870.15
2022-11-08T04:10:03.897Z,100873.14
2022-11-08T04:12:48.877Z,100869.19
2022-11-08T04:15:21.136Z,100871.61
2022-11-08T04:18:08.969Z,100874.05
2022-11-08T04:20:58.804Z,100873.45
2022-11-08T04:23:26.413Z,100874.54
2022-11-08T04:25:58.890Z,100875.12
2022-11-08T04:28:31.501Z,100871.00
2022-11-08T04:31:02.172Z,100872.02
2022-11-08T04:33:29.044Z,100866.95
2022-11-08T04:35:55.581Z,100873.30
2022-11-08T04:38:22.044Z,100871.54
2022-11-08T04:40:48.593Z,100872.77
2022-11-08T04:43:15.088Z,100869.73
2022-11-08T04:45:41.624Z,100863.29
2022-11-08T04:48:09.783Z,100866.25
2022-11-08T04:50:36.546Z,100864.34
2022-11-08T04:53:03.590Z,100861.22
2022-11-08T04:55:30.124Z,100861.98
2022-11-08T04:57:58.400Z,100863.63
2022-11-08T05:00:25.979Z,100865.20
2022-11-08T05:02:52.594Z,100867.19
2022-11-08T05:05:19.154Z,100874.11
2022-11-08T05:07:45.773Z,100874.60
2022-11-08T05:10:12.325Z,100876.52
2022-11-08T05:12:38.948Z,100876.17
2022-11-08T05:15:06.349Z,100874.85
2022-11-08T05:17:32.840Z,100874.35
2022-11-08T05:20:17.842Z,100871.83
2022-11-08T05:23:02.982Z,100866.05
2022-11-08T05:25:29.523Z,100865.67
2022-11-08T05:27:55.951Z,100861.27
2022-11-08T05:30:22.386Z,100863.93
2022-11-08T05:32:52.682Z,100863.61
2022-11-08T05:35:21.077Z,100861.88
2022-11-08T05:37:47.626Z,100864.40
2022-11-08T05:40:14.268Z,100862.33
2022-11-08T05:42:40.653Z,100863.95
2022-11-08T05:45:09.461Z,100861.15
2022-11-08T05:47:37.112Z,100863.65
2022-11-08T05:50:04.505Z,100871.63
2022-11-08T05:52:30.911Z,100878.04
2022-11-08T05:54:57.375Z,100884.48
2022-11-08T05:57:23.909Z,100887.50
2022-11-08T05:59:50.445Z,100888.63
2022-11-08T06:02:17.705Z,100883.89
2022-11-08T06:04:44.444Z,100884.30
2022-11-08T06:07:10.874Z,100880.74
2022-11-08T06:09:37.411Z,100875.55
2022-11-08T06:12:04.560Z,100877.86
2022-11-08T06:14:31.200Z,100874.24
2022-11-08T06:16:57.634Z,100872.70
2022-11-08T06:19:24.172Z,100874.41
2022-11-08T06:21:50.705Z,100880.82
2022-11-08T06:24:17.140Z,100882.20
2022-11-08T06:26:43.812Z,100885.66
2022-11-08T06:29:10.242Z,100888.84
2022-11-08T06:31:41.829Z,100885.80
2022-11-08T06:34:10.428Z,100886.95
2022-11-08T06:36:37.202Z,100889.55
2022-11-08T06:39:03.938Z,100881.81
2022-11-08T06:41:31.699Z,100882.18
2022-11-08T06:43:58.468Z,100879.10
2022-11-08T06:46:25.692Z,100877.81
2022-11-08T06:48:52.279Z,100876.21
2022-11-08T06:51:19.053Z,100879.27
2022-11-08T06:53:45.608Z,100886.02
2022-11-08T06:56:12.321Z,100885.13
2022-11-08T06:58:38.782Z,100886.05
2022-11-08T07:01:07.054Z,100890.14
2022-11-08T07:03:34.008Z,100889.75
2022-11-08T07:06:02.491Z,100884.34
2022-11-08T07:08:29.845Z,100886.13
2022-11-08T07:10:56.584Z,100882.80
2022-11-08T07:13:23.122Z,100882.45
2022-11-08T07:15:49.741Z,100886.48
2022-11-08T07:18:18.593Z,100887.61
2022-11-08T07:20:45.595Z,100888.14
2022-11-08T07:23:12.235Z,100886.88
2022-11-08T07:25:38.771Z,100888.56
2022-11-08T07:28:07.706Z,100898.14
2022-11-08T07:30:35.069Z,100896.85
2022-11-08T07:33:01.553Z,100897.48
2022-11-08T07:35:28.505Z,100905.15
2022-11-08T07:37:55.680Z,100901.88
2022-11-08T07:40:23.314Z,100900.04
2022-11-08T07:43:11.592Z,100905.14
2022-11-08T07:45:36.664Z,100905.23
2022-11-08T07:48:10.970Z,100906.63
2022-11-08T07:50:39.460Z,100905.39
2022-11-08T07:53:06.010Z,100906.45
2022-11-08T07:55:35.432Z,100906.59
2022-11-08T07:58:02.035Z,100904.35
2022-11-08T08:00:29.994Z,100905.35
2022-11-08T08:02:58.343Z,100905.48
2022-11-08T08:05:27.078Z,100906.92
2022-11-08T08:07:58.322Z,100905.31
2022-11-08T08:10:26.817Z,100900.36
2022-11-08T08:12:53.964Z,100897.88
2022-11-08T08:15:20.799Z,100895.60
2022-11-08T08:17:47.539Z,100889.09
2022-11-08T08:20:14.348Z,100880.70
2022-11-08T08:22:49.876Z,100880.31
2022-11-08T08:25:17.633Z,100881.63
2022-11-08T08:27:52.253Z,100880.48
2022-11-08T08:30:19.403Z,100886.54
2022-11-08T08:32:53.592Z,100889.06
2022-11-08T08:35:24.422Z,100891.05
2022-11-08T08:37:51.063Z,100896.56
2022-11-08T08:40:17.699Z,100899.61
2022-11-08T08:42:44.235Z,100893.42
2022-11-08T08:45:14.886Z,100893.80
2022-11-08T08:47:41.817Z,100894.36
2022-11-08T08:50:09.375Z,100891.61
2022-11-08T08:52:35.912Z,100892.08
2022-11-08T08:55:02.449Z,100893.20
2022-11-08T08:57:28.983Z,100888.31
2022-11-08T09:02:44.280Z,100891.87
2022-11-08T09:05:12.349Z,100891.45
2022-11-08T09:07:39.795Z,100893.52
2022-11-08T09:10:09.370Z,100897.45
2022-11-08T09:12:36.977Z,100893.74
2022-11-08T09:15:05.089Z,100898.09
2022-11-08T09:17:31.528Z,100896.76
2022-11-08T09:19:58.040Z,100895.61
2022-11-08T09:22:24.558Z,100893.36
2022-11-08T09:24:50.980Z,100894.66
2022-11-08T09:27:17.524Z,100896.15
2022-11-08T09:29:44.058Z,100900.04
2022-11-08T09:32:10.697Z,100903.80
2022-11-08T09:34:37.159Z,100895.66
2022-11-08T09:37:03.680Z,100890.63
2022-11-08T09:39:30.203Z,100887.15
2022-11-08T09:42:34.833Z,100885.48
2022-11-08T09:45:21.200Z,100885.80
2022-11-08T09:48:03.081Z,100889.08
2022-11-08T09:50:39.988Z,100888.22
2022-11-08T09:53:44.024Z,100883.65
2022-11-08T09:56:18.568Z,100875.20
2022-11-08T09:59:01.367Z,100872.77
2022-11-08T10:01:33.993Z,100866.82
2022-11-08T10:04:11.854Z,100864.71
2022-11-08T10:07:02.730Z,100862.52
2022-11-08T10:09:53.047Z,100861.16
2022-11-08T10:12:40.065Z,100860.08
2022-11-08T10:15:41.826Z,100855.14
2022-11-08T10:18:36.344Z,100858.84
2022-11-08T10:21:21.597Z,100857.48
2022-11-08T10:24:17.806Z,100850.91
2022-11-08T10:26:47.231Z,100851.64
2022-11-08T10:29:22.779Z,100849.23
2022-11-08T10:31:57.815Z,100845.55
2022-11-08T10:34:28.848Z,100841.71
2022-11-08T10:37:02.866Z,100845.05
2022-11-08T10:39:37.454Z,100842.70
2022-11-08T10:42:29.321Z,100841.94
2022-11-08T10:44:55.912Z,100839.42
2022-11-08T10:47:31.353Z,100835.13
2022-11-08T10:50:03.355Z,100833.44
2022-11-08T10:52:41.649Z,100831.80
2022-11-08T10:55:22.056Z,100834.48
2022-11-08T10:57:48.647Z,100833.06
2022-11-08T11:00:21.563Z,100832.79
2022-11-08T11:02:59.872Z,100832.45
2022-11-08T11:05:31.746Z,100826.48
2022-11-08T11:08:07.494Z,100825.50
2022-11-08T11:10:45.187Z,100821.55
2022-11-08T11:13:21.608Z,100814.84
2022-11-08T11:16:02.736Z,100817.08
2022-11-08T11:18:49.037Z,100814.18
2022-11-08T11:21:22.157Z,100812.96
2022-11-08T11:24:05.351Z,100811.45
2022-11-08T11:26:34.582Z,100812.28
2022-11-08T11:29:04.319Z,100814.67
2022-11-08T11:31:34.995Z,100808.31
2022-11-08T11:34:16.801Z,100809.35
2022-11-08T11:36:58.686Z,100809.74
2022-11-08T11:39:33.823Z,100809.86
2022-11-08T11:42:43.876Z,100806.96
2022-11-08T11:45:37.180Z,100806.31
2022-11-08T11:48:26.752Z,100805.95
2022-11-08T11:50:53.827Z,100802.59
2022-11-08T11:53:26.960Z,100801.56
2022-11-08T11:56:20.638Z,100797.16
2022-11-08T11:58:53.005Z,100792.08
2022-11-08T12:01:45.006Z,100790.85
2022-11-08T12:04:33.720Z,100791.02
2022-11-08T12:07:06.152Z,100788.80
2022-11-08T12:10:09.165Z,100788.84
2022-11-08T12:13:00.023Z,100789.70
2022-11-08T12:15:45.058Z,100787.77
2022-11-08T12:18:42.800Z,100784.45
2022-11-08T12:21:14.377Z,100781.68
2022-11-08T12:24:04.044Z,100780.95
2022-11-08T12:27:01.031Z,100777.67
2022-11-08T12:29:46.311Z,100774.80
2022-11-08T12:32:38.630Z,100771.41
2022-11-08T12:35:05.139Z,100768.05
2022-11-08T12:37:43.760Z,100768.11
2022-11-08T12:40:38.865Z,100769.52
2022-11-08T12:43:46.441Z,100766.80
2022-11-08T12:46:18.051Z,100765.98
2022-11-08T12:49:13.022Z,100762.91
2022-11-08T12:51:57.990Z,100758.88
2022-11-08T12:54:39.791Z,100754.22
2022-11-08T12:57:17.175Z,100753.33
2022-11-08T12:59:48.219Z,100746.63
2022-11-08T13:02:20.662Z,100745.54
2022-11-08T13:04:51.631Z,100743.91
2022-11-08T13:07:31.071Z,100745.26
2022-11-08T13:10:42.868Z,100749.15
2022-11-08T13:13:34.085Z,100746.03
2022-11-08T13:16:06.387Z,100744.13
2022-11-08T13:18:35.654Z,100743.84
2022-11-08T13:21:24.923Z,100743.71
2022-11-08T13:23:53.207Z,100741.95
2022-11-08T13:26:25.442Z,100742.08
2022-11-08T13:28:52.929Z,100738.73
2022-11-08T13:31:48.863Z,100736.97
2022-11-08T13:34:21.125Z,100734.94
2022-11-08T13:37:02.203Z,100739.21
2022-11-08T13:39:42.049Z,100738.77
2022-11-08T13:42:14.732Z,100737.90
2022-11-08T13:44:58.783Z,100739.02
2022-11-08T13:47:32.072Z,100739.95
2022-11-08T13:50:26.957Z,100738.46
2022-11-08T13:53:23.934Z,100736.28
2022-11-08T13:55:56.398Z,100743.05
2022-11-08T13:58:41.062Z,100743.85
2022-11-08T14:01:08.973Z,100744.06
2022-11-08T14:03:35.471Z,100741.10
2022-11-08T14:06:04.897Z,100747.45
2022-11-08T14:08:50.555Z,100747.19
2022-11-08T14:11:48.262Z,100744.38
2022-11-08T14:14:27.321Z,100747.52
2022-11-08T14:17:00.952Z,100744.10
2022-11-08T14:19:32.143Z,100743.34
2022-11-08T14:22:01.255Z,100740.80
2022-11-08T14:24:33.525Z,100741.05
2022-11-08T14:27:00.511Z,100733.50
2022-11-08T14:29:27.049Z,100733.67
2022-11-08T14:32:16.468Z,100727.73
2022-11-08T14:34:43.164Z,100726.27
2022-11-08T14:37:27.896Z,100724.04
2022-11-08T14:39:54.460Z,100722.34
2022-11-08T14:42:25.636Z,100721.52
2022-11-08T14:44:54.701Z,100721.94
2022-11-08T14:47:23.800Z,100724.74
2022-11-08T14:49:50.435Z,100724.59
2022-11-08T14:52:21.965Z,100725.37
2022-11-08T14:54:59.283Z,100724.10
2022-11-08T14:57:30.115Z,100727.39
2022-11-08T14:59:57.514Z,100723.54
2022-11-08T15:02:25.338Z,100727.39
2022-11-08T15:04:52.693Z,100726.63
2022-11-08T15:07:22.244Z,100725.55
2022-11-08T15:09:49.457Z,100725.10
2022-11-08T15:12:18.957Z,100723.15
2022-11-08T15:14:54.812Z,100723.63
2022-11-08T15:17:36.703Z,100727.82
2022-11-08T15:20:19.731Z,100724.67
2022-11-08T15:22:47.565Z,100719.46
2022-11-08T15:25:14.035Z,100726.58
2022-11-08T15:27:47.942Z,100728.61
2022-11-08T15:30:19.320Z,100730.86
2022-11-08T15:32:46.615Z,100725.02
2022-11-08T15:35:39.099Z,100721.55
2022-11-08T15:38:26.619Z,100720.86
2022-11-08T15:40:55.369Z,100716.87
2022-11-08T15:43:30.809Z,100718.61
2022-11-08T15:46:01.689Z,100712.71
2022-11-08T15:48:29.249Z,100712.38
2022-11-08T15:50:56.834Z,100707.19
2022-11-08T15:53:25.395Z,100705.36
2022-11-08T15:55:56.845Z,100706.55
2022-11-08T15:58:29.692Z,100703.16
2022-11-08T16:00:58.413Z,100703.80
2022-11-08T16:03:25.362Z,100700.19
2022-11-08T16:05:52.326Z,100698.70
2022-11-08T16:08:20.477Z,100699.30
2022-11-08T16:10:53.621Z,100695.46
2022-11-08T16:13:27.690Z,100692.90
2022-11-08T16:15:55.251Z,100690.02
2022-11-08T16:18:23.114Z,100687.95
2022-11-08T16:20:50.475Z,100687.62
2022-11-08T16:23:17.160Z,100689.00
2022-11-08T16:25:45.829Z,100685.18
2022-11-08T16:28:38.084Z,100684.59
2022-11-08T16:31:07.341Z,100686.50
2022-11-08T16:33:35.101Z,100687.79
2022-11-08T16:36:11.982Z,100689.73
2022-11-08T16:38:38.514Z,100691.38
2022-11-08T16:41:05.565Z,100686.58
2022-11-08T16:43:33.022Z,100691.13
2022-11-08T16:46:06.093Z,100688.23
2022-11-08T16:48:35.985Z,100691.17
2022-11-08T16:51:05.316Z,100690.48
2022-11-08T16:53:32.683Z,100693.88
2022-11-08T16:55:59.607Z,100692.62
2022-11-08T16:58:27.493Z,100690.44
2022-11-08T17:00:55.260Z,100690.25
2022-11-08T17:03:24.652Z,100694.31
2022-11-08T17:05:53.218Z,100695.91
2022-11-08T17:08:20.006Z,100697.77
2022-11-08T17:10:46.935Z,100698.46
2022-11-08T17:13:15.421Z,100699.65
2022-11-08T17:15:42.043Z,100697.04
2022-11-08T17:18:11.153Z,100696.08
2022-11-08T17:20:38.849Z,100697.89
2022-11-08T17:23:06.087Z,100695.47
2022-11-08T17:25:35.792Z,100698.79
2022-11-08T17:28:03.402Z,100699.54
2022-11-08T17:30:29.883Z,100695.38
2022-11-08T17:32:56.513Z,100693.79
2022-11-08T17:35:23.459Z,100688.95
2022-11-08T17:37:49.896Z,100690.52
2022-11-08T17:40:16.434Z,100690.36
2022-11-08T17:42:44.706Z,100684.30
2022-11-08T17:45:12.267Z,100682.47
2022-11-08T17:47:38.801Z,100684.00
2022-11-08T17:50:07.891Z,100680.55
2022-11-08T17:52:34.539Z,100685.41
2022-11-08T17:55:01.234Z,100680.83
2022-11-08T17:57:27.926Z,100673.58
2022-11-08T17:59:54.808Z,100670.07
2022-11-08T18:02:21.319Z,100674.62
2022-11-08T18:04:47.936Z,100674.21
2022-11-08T18:07:14.544Z,100672.10
2022-11-08T18:09:41.210Z,100670.70
2022-11-08T18:12:07.855Z,100669.91
2022-11-08T18:14:34.696Z,100676.75
2022-11-08T18:17:01.229Z,100672.77
2022-11-08T18:19:27.766Z,100671.73
2022-11-08T18:21:54.408Z,100672.58
2022-11-08T18:24:20.970Z,100675.00
2022-11-08T18:26:47.682Z,100674.32
2022-11-08T18:29:14.216Z,100671.05
2022-11-08T18:31:40.653Z,100674.67
2022-11-08T18:34:07.567Z,100674.47
2022-11-08T18:36:34.136Z,100672.02
2022-11-08T18:39:02.104Z,100669.29
2022-11-08T18:41:31.001Z,100670.13
2022-11-08T18:43:59.376Z,100671.89
2022-11-08T18:46:28.068Z,100675.49
2022-11-08T18:48:54.904Z,100674.05
2022-11-08T18:51:23.181Z,100671.05
2022-11-08T18:53:51.868Z,100667.45
2022-11-08T18:56:19.190Z,100661.45
2022-11-08T18:58:45.674Z,100663.42
2022-11-08T19:01:12.950Z,100658.89
2022-11-08T19:03:40.103Z,100658.99
2022-11-08T19:06:07.062Z,100661.23
2022-11-08T19:08:33.954Z,100661.42
2022-11-08T19:11:03.362Z,100663.98
2022-11-08T19:13:32.644Z,100662.80
2022-11-08T19:16:26.829Z,100661.37
2022-11-08T19:18:53.377Z,100663.80
2022-11-08T19:21:22.387Z,100662.54
2022-11-08T19:23:50.198Z,100665.95
2022-11-08T19:26:18.779Z,100661.11
2022-11-08T19:28:46.020Z,100664.59
2022-11-08T19:31:20.625Z,100662.12
2022-11-08T19:33:48.363Z,100661.35
2022-11-08T19:36:17.906Z,100663.77
2022-11-08T19:38:45.226Z,100662.95
2022-11-08T19:41:17.745Z,100668.07
2022-11-08T19:43:45.056Z,100662.55
2022-11-08T19:46:17.839Z,100666.44
2022-11-08T19:48:46.460Z,100672.84
2022-11-08T19:51:16.036Z,100674.34
2022-11-08T19:53:43.597Z,100668.36
2022-11-08T19:56:14.467Z,100680.72
2022-11-08T19:58:41.479Z,100679.60
2022-11-08T20:01:17.385Z,100680.14
2022-11-08T20:03:44.800Z,100679.52
2022-11-08T20:06:12.759Z,100674.35
2022-11-08T20:08:39.326Z,100678.41
2022-11-08T20:11:13.572Z,100683.73
2022-11-08T20:13:40.451Z,100683.42
2022-11-08T20:16:09.196Z,100686.54
2022-11-08T20:18:35.657Z,100685.54
2022-11-08T20:21:07.221Z,100681.95
2022-11-08T20:23:34.796Z,100679.64
2022-11-08T20:26:03.495Z,100676.95
2022-11-08T20:28:30.018Z,100673.22
2022-11-08T20:31:07.103Z,100677.08
2022-11-08T20:33:35.889Z,100677.63
2022-11-08T20:36:07.393Z,100669.31
2022-11-08T20:38:36.335Z,100667.85
2022-11-08T20:41:05.121Z,100671.29
2022-11-08T20:43:32.273Z,100668.79
2022-11-08T20:46:03.633Z,100669.88
2022-11-08T20:48:30.435Z,100669.29
2022-11-08T20:51:01.646Z,100672.35
2022-11-08T20:53:31.628Z,100670.61
2022-11-08T20:56:00.244Z,100669.48
2022-11-08T20:58:28.798Z,100669.62
2022-11-08T21:00:58.762Z,100670.73
2022-11-08T21:03:26.990Z,100668.06
2022-11-08T21:05:56.284Z,100670.20
2022-11-08T21:11:11.931Z,100664.80
2022-11-08T21:13:40.990Z,100666.65
2022-11-08T21:16:28.681Z,100661.14
2022-11-08T21:18:57.000Z,100661.08
2022-11-08T21:21:23.741Z,100663.39
2022-11-08T21:23:51.095Z,100656.91
2022-11-08T21:26:18.677Z,100654.64
2022-11-08T21:28:46.123Z,100655.31
2022-11-08T21:31:13.673Z,100654.23
2022-11-08T21:33:40.213Z,100653.73
2022-11-08T21:36:07.503Z,100655.02
2022-11-08T21:38:38.812Z,100656.93
2022-11-08T21:41:08.012Z,100657.77
2022-11-08T21:43:42.377Z,100656.81
2022-11-08T21:46:24.276Z,100651.40
2022-11-08T21:48:56.228Z,100647.64
2022-11-08T21:51:23.321Z,100646.36
2022-11-08T21:53:55.279Z,100646.25
2022-11-08T21:56:24.254Z,100647.79
2022-11-08T21:58:51.328Z,100649.69
2022-11-08T22:01:18.267Z,100651.95
2022-11-08T22:03:46.052Z,100651.73
2022-11-08T22:06:12.999Z,100653.83
2022-11-08T22:08:39.538Z,100645.02
2022-11-08T22:11:06.082Z,100643.49
2022-11-08T22:13:32.738Z,100644.31
2022-11-08T22:15:59.203Z,100638.61
2022-11-08T22:18:43.605Z,100643.25
2022-11-08T22:21:30.931Z,100641.17
2022-11-08T22:23:57.462Z,100645.12
2022-11-08T22:26:23.996Z,100642.32
2022-11-08T22:28:50.533Z,100647.25
2022-11-08T22:31:18.196Z,100642.84
2022-11-08T22:33:44.630Z,100637.14
2022-11-08T22:36:11.474Z,100642.15
2022-11-08T22:38:38.008Z,100642.20
2022-11-08T22:41:04.648Z,100638.64
2022-11-08T22:43:32.924Z,100640.20
2022-11-08T22:45:59.460Z,100638.77
2022-11-08T22:48:25.840Z,100639.94
2022-11-08T22:50:52.227Z,100642.23
2022-11-08T22:53:18.940Z,100640.70
2022-11-08T22:55:45.831Z,100636.86
2022-11-08T22:58:12.351Z,100636.96
2022-11-08T23:00:38.834Z,100633.20
2022-11-08T23:03:05.316Z,100633.28
2022-11-08T23:05:31.711Z,100635.81
2022-11-08T23:07:58.081Z,100640.34
2022-11-08T23:10:24.925Z,100638.08
2022-11-08T23:13:10.508Z,100634.27
2022-11-08T23:15:56.128Z,100634.49
2022-11-08T23:18:23.651Z,100635.42
2022-11-08T23:21:12.772Z,100636.19
2022-11-08T23:23:57.785Z,100636.99
2022-11-08T23:26:42.960Z,100635.10
2022-11-08T23:29:28.908Z,100637.73
2022-11-08T23:31:55.763Z,100636.80
2022-11-08T23:34:22.228Z,100638.42
2022-11-08T23:36:48.678Z,100629.57
2022-11-08T23:39:15.100Z,100625.89
2022-11-08T23:42:00.272Z,100626.74
2022-11-08T23:44:27.181Z,100626.52
2022-11-08T23:46:58.877Z,100620.41
2022-11-08T23:49:26.023Z,100617.13
2022-11-08T23:51:52.661Z,100615.81
2022-11-08T23:54:19.476Z,100619.80
2022-11-08T23:56:46.552Z,100618.99
2022-11-08T23:59:14.523Z,100624.14
